Time;durP1;ratioP1;P1;durP2;ratioP2;P2;SDS_P1;SDS_P2;PMS_P1;PMS_P2;Temp;Humidity;BMP_temperature;BMP_pressure;BME280_temperature;BME280_humidity;BME280_pressure;Samples;Min_cycle;Max_cycle;Signal;HPM_P1;HPM_P2
2022/12/19 00:01:28;;;;;;;6.90;4.55;;;8.00;67.30;;;;;;5064070;28;20438;-78
2022/12/19 00:03:57;;;;;;;6.15;4.80;;;8.00;67.40;;;;;;5061093;28;20032;-79
2022/12/19 00:06:24;;;;;;;6.03;4.47;;;8.00;67.50;;;;;;5065324;28;20033;-77
2022/12/19 00:08:52;;;;;;;7.20;4.50;;;8.00;67.70;;;;;;5063764;28;20154;-76
2022/12/19 00:11:21;;;;;;;5.50;4.03;;;8.00;67.70;;;;;;5062895;28;20039;-77
2022/12/19 00:13:47;;;;;;;6.38;4.35;;;8.00;67.70;;;;;;5062996;28;20036;-78
2022/12/19 00:16:16;;;;;;;6.60;4.75;;;8.00;67.80;;;;;;5062794;28;20029;-77
2022/12/19 00:18:44;;;;;;;5.68;4.10;;;8.00;67.80;;;;;;5061858;28;20033;-77
2022/12/19 00:21:13;;;;;;;5.38;4.07;;;8.00;67.80;;;;;;5062501;28;20151;-77
2022/12/19 00:23:39;;;;;;;5.80;4.10;;;8.00;67.80;;;;;;5062277;28;20037;-77
2022/12/19 00:26:14;;;;;;;6.22;4.32;;;8.00;67.80;;;;;;5062638;28;20047;-76
2022/12/19 00:28:42;;;;;;;5.67;4.10;;;8.00;67.90;;;;;;5061777;28;20033;-77
2022/12/19 00:31:11;;;;;;;6.93;4.20;;;8.00;68.10;;;;;;5061833;28;20520;-77
2022/12/19 00:33:37;;;;;;;6.57;4.35;;;8.00;68.20;;;;;;5044119;28;20083;-78
2022/12/19 00:36:15;;;;;;;5.82;4.10;;;8.10;68.10;;;;;;5044716;28;20025;-77
2022/12/19 00:38:45;;;;;;;6.63;3.90;;;8.00;67.90;;;;;;5050310;28;20082;-77
2022/12/19 00:41:17;;;;;;;4.88;3.60;;;8.10;67.90;;;;;;5046080;28;20032;-76
2022/12/19 00:43:44;;;;;;;5.10;3.80;;;8.00;67.70;;;;;;5043716;28;20036;-76
2022/12/19 00:46:13;;;;;;;6.90;3.75;;;8.00;67.80;;;;;;5027104;28;20032;-75
2022/12/19 00:48:40;;;;;;;5.43;3.55;;;8.00;67.90;;;;;;5063045;28;20073;-76
2022/12/19 00:51:12;;;;;;;5.57;3.38;;;8.00;68.00;;;;;;5059917;28;20029;-75
2022/12/19 00:53:45;;;;;;;5.10;3.60;;;8.00;67.90;;;;;;5062898;28;20087;-78
2022/12/19 00:56:14;;;;;;;4.82;3.33;;;8.10;68.10;;;;;;5043601;28;20395;-77
2022/12/19 00:58:40;;;;;;;4.38;3.22;;;8.10;68.00;;;;;;5043898;28;20082;-76
2022/12/19 01:01:14;;;;;;;4.53;3.63;;;8.10;68.00;;;;;;5028977;28;20418;-77
2022/12/19 01:03:40;;;;;;;4.28;2.80;;;8.10;68.00;;;;;;5044325;28;20029;-77
2022/12/19 01:06:07;;;;;;;3.25;2.85;;;8.10;67.90;;;;;;5063558;28;20035;-77
2022/12/19 01:08:33;;;;;;;4.82;3.53;;;8.00;67.80;;;;;;5060797;28;20033;-76
2022/12/19 01:10:59;;;;;;;4.10;3.03;;;8.00;67.80;;;;;;5048936;28;20506;-77
2022/12/19 01:13:29;;;;;;;4.82;3.08;;;8.00;67.70;;;;;;5027741;28;20056;-76
2022/12/19 01:15:55;;;;;;;3.60;3.03;;;8.00;67.70;;;;;;5059670;28;20115;-76
2022/12/19 01:18:22;;;;;;;4.53;2.95;;;8.10;67.70;;;;;;5060484;28;20087;-77
2022/12/19 01:20:48;;;;;;;4.80;2.95;;;8.00;67.70;;;;;;5047463;28;20037;-77
2022/12/19 01:23:15;;;;;;;3.50;2.75;;;8.00;67.60;;;;;;5042354;28;20105;-77
2022/12/19 01:25:42;;;;;;;3.55;2.75;;;8.00;67.60;;;;;;5047098;28;20032;-77
2022/12/19 01:28:14;;;;;;;4.03;3.13;;;8.00;67.50;;;;;;5043332;28;21716;-77
2022/12/19 01:30:40;;;;;;;4.38;3.00;;;8.00;67.40;;;;;;5060907;28;20060;-77
2022/12/19 01:33:11;;;;;;;7.25;2.90;;;8.00;67.40;;;;;;5045322;28;20043;-76
2022/12/19 01:35:38;;;;;;;3.00;2.30;;;8.00;67.30;;;;;;5043039;28;20051;-76
2022/12/19 01:38:04;;;;;;;5.40;3.00;;;8.00;67.40;;;;;;5059518;28;20037;-76
2022/12/19 01:40:33;;;;;;;3.97;2.83;;;8.00;67.40;;;;;;5060011;28;20132;-78
2022/12/19 01:43:01;;;;;;;5.10;3.10;;;8.10;67.60;;;;;;5059062;28;20037;-76
2022/12/19 01:45:32;;;;;;;5.32;3.13;;;8.10;67.70;;;;;;5060569;28;20223;-77
2022/12/19 01:48:13;;;;;;;4.95;2.70;;;8.00;67.60;;;;;;5045147;28;20030;-76
2022/12/19 01:50:50;;;;;;;3.22;2.50;;;8.10;67.70;;;;;;5044099;28;20583;-78
2022/12/19 01:53:16;;;;;;;3.60;2.58;;;8.10;67.70;;;;;;5059158;28;20086;-77
2022/12/19 01:55:43;;;;;;;4.05;3.05;;;8.10;67.80;;;;;;5060907;28;20033;-77
2022/12/19 01:58:11;;;;;;;4.40;2.97;;;8.10;68.40;;;;;;5061982;28;20133;-76
2022/12/19 02:00:40;;;;;;;3.90;2.90;;;8.10;67.90;;;;;;5061327;28;20387;-76
2022/12/19 02:03:17;;;;;;;3.70;2.90;;;8.10;67.90;;;;;;5062924;28;20028;-77
2022/12/19 02:05:44;;;;;;;3.97;3.28;;;8.10;67.80;;;;;;5042968;28;20032;-76
2022/12/19 02:08:10;;;;;;;3.60;2.95;;;8.10;67.80;;;;;;5043936;28;20723;-75
2022/12/19 02:10:36;;;;;;;4.45;2.72;;;8.10;67.80;;;;;;5060346;28;20040;-77
2022/12/19 02:13:02;;;;;;;4.10;3.22;;;8.10;67.80;;;;;;5046832;28;20503;-76
2022/12/19 02:15:34;;;;;;;3.78;2.72;;;8.10;67.90;;;;;;5043940;28;20540;-76
2022/12/19 02:18:38;;;;;;;3.20;2.50;;;8.10;67.80;;;;;;5061115;28;20063;-76
2022/12/19 02:21:16;;;;;;;2.95;2.58;;;8.10;67.70;;;;;;5006849;28;20926;-78
2022/12/19 02:24:18;;;;;;;4.05;2.78;;;8.10;67.70;;;;;;5007212;28;20033;-76
2022/12/19 02:26:50;;;;;;;3.75;2.83;;;8.10;67.60;;;;;;5007442;28;20474;-76
2022/12/19 02:29:18;;;;;;;4.97;3.15;;;8.10;67.60;;;;;;5006528;28;20033;-77
2022/12/19 02:32:06;;;;;;;3.75;3.00;;;8.10;67.70;;;;;;5023463;28;20651;-76
2022/12/19 02:34:35;;;;;;;4.38;2.97;;;8.10;67.70;;;;;;5006413;28;20036;-76
2022/12/19 02:37:33;;;;;;;4.40;2.92;;;8.10;67.60;;;;;;5006835;28;20038;-76
2022/12/19 02:40:13;;;;;;;4.10;2.78;;;8.10;67.60;;;;;;5023734;28;20072;-77
2022/12/19 02:42:44;;;;;;;3.85;2.90;;;8.10;67.50;;;;;;5022789;28;20117;-76
2022/12/19 02:45:15;;;;;;;4.68;2.95;;;8.10;67.50;;;;;;5022551;28;20168;-76
2022/12/19 02:47:42;;;;;;;5.18;3.30;;;8.10;67.50;;;;;;5023320;28;20045;-76
2022/12/19 02:50:10;;;;;;;8.50;3.20;;;8.10;67.40;;;;;;5023017;28;20049;-77
2022/12/19 02:52:36;;;;;;;3.90;3.10;;;8.20;67.50;;;;;;5001776;28;20038;-78
2022/12/19 02:55:13;;;;;;;5.22;3.28;;;8.20;68.00;;;;;;5040755;28;20083;-77
2022/12/19 02:57:49;;;;;;;4.88;3.28;;;8.10;67.30;;;;;;5026295;28;20399;-77
2022/12/19 03:00:24;;;;;;;4.68;3.08;;;8.10;67.30;;;;;;5060224;28;20071;-77
2022/12/19 03:03:09;;;;;;;6.53;3.50;;;8.10;67.30;;;;;;5014014;28;20032;-76
2022/12/19 03:05:55;;;;;;;5.82;3.30;;;8.10;67.30;;;;;;5040535;28;20657;-78
2022/12/19 03:08:51;;;;;;;3.63;3.08;;;8.10;67.40;;;;;;5041350;28;20562;-77
2022/12/19 03:11:18;;;;;;;5.55;3.33;;;8.20;67.70;;;;;;5026887;28;20459;-79
2022/12/19 03:13:54;;;;;;;5.95;3.20;;;8.20;67.90;;;;;;5041954;28;20040;-78
2022/12/19 03:16:21;;;;;;;4.78;3.30;;;8.20;67.90;;;;;;5024567;28;20029;-77
2022/12/19 03:18:47;;;;;;;4.50;2.95;;;8.20;67.90;;;;;;5046472;28;20035;-76
2022/12/19 03:21:33;;;;;;;5.70;3.33;;;8.20;67.90;;;;;;5064048;28;20025;-75
2022/12/19 03:24:00;;;;;;;3.90;3.05;;;8.20;67.90;;;;;;5064447;28;20037;-78
2022/12/19 03:26:36;;;;;;;3.92;2.92;;;8.20;67.90;;;;;;5064624;28;20056;-77
2022/12/19 03:29:08;;;;;;;;;;;8.20;68.00;;;;;;5064725;28;20071;-74
2022/12/19 03:31:36;;;;;;;4.55;3.22;;;8.20;68.00;;;;;;5065468;28;19962;-73
2022/12/19 03:34:11;;;;;;;5.20;3.05;;;8.20;67.90;;;;;;5062847;28;20037;-73
2022/12/19 03:36:41;;;;;;;4.72;3.22;;;8.20;67.80;;;;;;5062647;28;20082;-73
2022/12/19 03:39:10;;;;;;;3.90;2.80;;;8.20;67.70;;;;;;5063467;28;20039;-74
2022/12/19 03:44:30;;;;;;;5.05;3.03;;;8.20;67.40;;;;;;5020319;28;20042;-76
2022/12/19 03:47:19;;;;;;;3.55;2.80;;;8.30;67.10;;;;;;5002444;28;20045;-76
2022/12/19 03:49:46;;;;;;;4.22;2.95;;;8.20;67.00;;;;;;5019538;28;20102;-75
2022/12/19 03:52:32;;;;;;;5.18;3.30;;;8.30;66.90;;;;;;5019870;28;20049;-75
2022/12/19 03:55:17;;;;;;;;;;;8.20;66.70;;;;;;5021874;28;20041;-74
2022/12/19 03:58:06;;;;;;;6.18;3.67;;;8.30;66.70;;;;;;5008131;28;20335;-76
2022/12/19 04:00:36;;;;;;;6.13;3.70;;;8.30;66.70;;;;;;5023389;28;20069;-75
2022/12/19 04:03:04;;;;;;;4.00;3.38;;;8.20;66.60;;;;;;4990743;28;20045;-77
2022/12/19 04:05:31;;;;;;;4.00;2.92;;;8.30;66.60;;;;;;5023131;28;20431;-78
2022/12/19 04:08:04;;;;;;;4.13;2.95;;;8.30;66.60;;;;;;5022807;28;20467;-76
2022/12/19 04:10:35;;;;;;;4.28;3.08;;;8.30;66.60;;;;;;5004290;28;20163;-79
2022/12/19 04:13:20;;;;;;;4.63;2.88;;;8.30;66.50;;;;;;5019856;28;20125;-76
2022/12/19 04:16:03;;;;;;;3.95;2.45;;;8.30;66.50;;;;;;5019618;28;20096;-78
2022/12/19 04:18:30;;;;;;;5.95;3.00;;;8.30;66.60;;;;;;5020513;28;20128;-76
2022/12/19 04:21:13;;;;;;;4.75;2.53;;;8.30;66.50;;;;;;5029821;28;20044;-76
2022/12/19 04:23:56;;;;;;;4.97;3.05;;;8.30;66.60;;;;;;5044694;28;20515;-76
2022/12/19 04:26:23;;;;;;;4.40;2.60;;;8.30;66.60;;;;;;5066212;28;20045;-77
2022/12/19 04:28:57;;;;;;;3.40;2.58;;;8.30;66.60;;;;;;5062035;28;20059;-76
2022/12/19 04:31:23;;;;;;;4.05;3.00;;;8.30;66.60;;;;;;5062682;28;20040;-77
2022/12/19 04:33:49;;;;;;;3.70;2.80;;;8.30;66.60;;;;;;5047447;28;20116;-79
2022/12/19 04:36:15;;;;;;;3.80;2.65;;;8.30;66.90;;;;;;5062054;28;20308;-76
2022/12/19 04:38:41;;;;;;;4.78;3.03;;;8.30;66.60;;;;;;5062976;28;20395;-75
2022/12/19 04:41:07;;;;;;;4.47;2.90;;;8.30;66.60;;;;;;5063432;28;20033;-74
2022/12/19 04:43:33;;;;;;;6.60;3.33;;;8.30;66.80;;;;;;5063537;28;20024;-78
2022/12/19 04:45:59;;;;;;;3.88;2.72;;;8.30;67.00;;;;;;5064390;28;20037;-74
2022/12/19 04:48:25;;;;;;;5.82;3.15;;;8.30;67.40;;;;;;5066152;28;20032;-73
2022/12/19 04:50:51;;;;;;;6.18;3.53;;;8.30;67.90;;;;;;5068249;28;20037;-74
2022/12/19 04:53:17;;;;;;;7.43;3.58;;;8.40;68.10;;;;;;5052434;28;20075;-73
2022/12/19 04:55:43;;;;;;;5.50;3.30;;;8.30;68.20;;;;;;5064945;28;20033;-74
2022/12/19 04:58:09;;;;;;;4.85;3.28;;;8.30;68.50;;;;;;5045871;28;20474;-73
2022/12/19 05:00:35;;;;;;;7.90;4.10;;;8.40;68.80;;;;;;5064103;28;20037;-73
2022/12/19 05:03:01;;;;;;;5.28;3.22;;;8.40;69.10;;;;;;5066257;28;20037;-74
2022/12/19 05:05:27;;;;;;;4.82;3.42;;;8.40;69.30;;;;;;5062794;28;20032;-75
2022/12/19 05:07:58;;;;;;;10.75;3.45;;;8.40;69.70;;;;;;5064819;28;20124;-74
2022/12/19 05:10:24;;;;;;;5.18;3.10;;;8.40;69.60;;;;;;5065855;28;20441;-75
2022/12/19 05:12:50;;;;;;;5.15;3.47;;;8.40;69.80;;;;;;5067865;28;20042;-74
2022/12/19 05:15:16;;;;;;;6.85;3.13;;;8.40;69.70;;;;;;5063574;28;20040;-74
2022/12/19 05:17:42;;;;;;;4.85;3.17;;;8.40;69.70;;;;;;5065478;28;20035;-73
2022/12/19 05:20:08;;;;;;;5.72;3.33;;;8.40;69.60;;;;;;5064701;28;20043;-74
2022/12/19 05:22:34;;;;;;;5.30;3.13;;;8.50;69.90;;;;;;5061980;28;20419;-75
2022/12/19 05:25:00;;;;;;;7.47;3.47;;;8.40;69.80;;;;;;5044344;28;20028;-73
2022/12/19 05:27:26;;;;;;;6.35;3.65;;;8.40;69.80;;;;;;5062631;28;20072;-73
2022/12/19 05:29:52;;;;;;;6.43;3.80;;;8.40;69.70;;;;;;5046903;28;20411;-73
2022/12/19 05:32:18;;;;;;;5.90;3.15;;;8.50;69.70;;;;;;5066328;28;20037;-74
2022/12/19 05:34:44;;;;;;;4.85;2.95;;;8.50;69.60;;;;;;5051592;28;20033;-74
2022/12/19 05:37:10;;;;;;;5.15;3.00;;;8.40;69.60;;;;;;5067069;28;20035;-75
2022/12/19 05:39:36;;;;;;;3.60;2.50;;;8.50;69.80;;;;;;5049047;28;20120;-72
2022/12/19 05:42:01;;;;;;;6.80;3.15;;;8.50;69.80;;;;;;5064798;28;20106;-74
2022/12/19 05:44:27;;;;;;;4.25;2.65;;;8.50;69.80;;;;;;5066591;28;20033;-74
2022/12/19 05:46:53;;;;;;;5.80;2.97;;;8.50;69.70;;;;;;5065905;28;20039;-75
2022/12/19 05:49:19;;;;;;;4.80;2.95;;;8.50;69.60;;;;;;5065698;28;20033;-74
2022/12/19 05:51:45;;;;;;;5.82;3.00;;;8.50;69.70;;;;;;5068211;28;20090;-73
2022/12/19 05:54:11;;;;;;;3.90;2.58;;;8.50;69.50;;;;;;5065805;28;20025;-73
2022/12/19 05:56:37;;;;;;;6.53;3.20;;;8.50;69.40;;;;;;5065716;28;20115;-74
2022/12/19 05:59:03;;;;;;;6.55;3.38;;;8.50;69.30;;;;;;5058601;28;20132;-70
2022/12/19 06:01:29;;;;;;;4.63;3.05;;;8.50;69.60;;;;;;5059573;28;20032;-70
2022/12/19 06:03:55;;;;;;;4.68;2.80;;;8.60;71.10;;;;;;5058848;28;20048;-70
2022/12/19 06:06:24;;;;;;;6.95;3.20;;;8.60;72.60;;;;;;5059620;28;20028;-70
2022/12/19 06:08:54;;;;;;;4.90;2.58;;;8.70;74.30;;;;;;5059385;28;20066;-69
2022/12/19 06:11:22;;;;;;;4.32;2.42;;;8.80;72.90;;;;;;5061453;28;20064;-70
2022/12/19 06:13:49;;;;;;;5.47;3.22;;;8.90;72.90;;;;;;5062616;28;20060;-70
2022/12/19 06:16:16;;;;;;;4.57;3.08;;;8.90;72.50;;;;;;5060680;28;20595;-70
2022/12/19 06:18:43;;;;;;;5.40;2.72;;;9.00;73.10;;;;;;5060354;28;20442;-93
2022/12/19 06:21:13;;;;;;;4.75;2.58;;;9.10;72.20;;;;;;5046486;28;20031;-82
2022/12/19 06:23:40;;;;;;;4.22;2.80;;;9.20;72.00;;;;;;5063661;28;20571;-84
2022/12/19 06:26:07;;;;;;;7.05;3.00;;;9.20;71.60;;;;;;5042151;28;20056;-90
2022/12/19 06:28:34;;;;;;;4.00;2.78;;;9.30;70.80;;;;;;5040959;28;20028;-87
2022/12/19 06:31:03;;;;;;;5.63;2.75;;;9.30;70.10;;;;;;5062924;28;20403;-88
2022/12/19 06:33:30;;;;;;;4.28;2.60;;;9.30;69.50;;;;;;5080461;28;20035;-89
2022/12/19 06:36:05;;;;;;;5.72;3.10;;;9.30;68.90;;;;;;5077911;28;20024;-90
2022/12/19 06:38:32;;;;;;;3.75;2.83;;;9.30;68.40;;;;;;5075289;28;20105;-88
2022/12/19 06:43:42;;;;;;;7.22;3.13;;;9.30;67.90;;;;;;5077935;28;20036;-91
2022/12/19 06:46:09;;;;;;;5.30;3.17;;;9.20;67.60;;;;;;5081059;28;20032;-90
2022/12/19 06:48:35;;;;;;;4.40;3.13;;;9.20;67.50;;;;;;5076105;28;20044;-89
2022/12/19 06:51:01;;;;;;;5.00;3.00;;;9.20;67.40;;;;;;5071065;28;20540;-91
2022/12/19 06:53:28;;;;;;;4.80;3.10;;;9.20;67.30;;;;;;5068592;28;20033;-89
2022/12/19 06:55:56;;;;;;;5.90;3.22;;;9.20;67.10;;;;;;5087534;28;20424;-90
2022/12/19 06:58:22;;;;;;;4.70;2.97;;;9.20;67.10;;;;;;5065849;28;20064;-89
2022/12/19 07:00:48;;;;;;;4.35;3.20;;;9.20;67.00;;;;;;5083514;28;20035;-91
2022/12/19 07:03:20;;;;;;;4.82;2.85;;;9.20;66.90;;;;;;5080874;28;20077;-91
2022/12/19 07:05:46;;;;;;;5.20;2.80;;;9.10;66.80;;;;;;5084386;28;20102;-89
2022/12/19 07:08:12;;;;;;;5.82;3.13;;;9.10;66.80;;;;;;5082275;28;20109;-89
2022/12/19 07:10:38;;;;;;;3.53;2.40;;;9.20;66.80;;;;;;5077290;28;20040;-90
2022/12/19 07:13:04;;;;;;;4.55;2.60;;;9.20;66.80;;;;;;5074180;28;20106;-88
2022/12/19 07:15:32;;;;;;;4.60;2.58;;;9.20;66.80;;;;;;5056062;28;20086;-89
2022/12/19 07:18:00;;;;;;;5.15;3.22;;;9.20;66.90;;;;;;5067386;28;20041;-91
2022/12/19 07:20:26;;;;;;;4.43;2.58;;;9.20;66.90;;;;;;5061680;28;20127;-88
2022/12/19 07:22:53;;;;;;;5.30;3.10;;;9.20;67.00;;;;;;5063761;28;20035;-89
2022/12/19 07:25:19;;;;;;;4.35;3.00;;;9.20;67.00;;;;;;5047362;28;20082;-86
2022/12/19 07:27:46;;;;;;;4.65;2.80;;;9.20;66.90;;;;;;5045194;28;20036;-88
2022/12/19 07:30:12;;;;;;;4.55;2.80;;;9.20;66.90;;;;;;5064127;28;20456;-85
2022/12/19 07:32:38;;;;;;;4.30;2.90;;;9.20;67.00;;;;;;5046468;28;20037;-89
2022/12/19 07:35:06;;;;;;;4.07;2.30;;;9.10;66.90;;;;;;5065174;28;20043;-86
2022/12/19 07:37:32;;;;;;;4.40;3.20;;;9.10;66.80;;;;;;5051114;28;20498;-87
2022/12/19 07:39:58;;;;;;;3.85;2.70;;;9.20;66.80;;;;;;5064647;28;20043;-87
2022/12/19 07:42:24;;;;;;;4.20;2.65;;;9.10;66.70;;;;;;5060856;28;20036;-86
2022/12/19 07:44:50;;;;;;;4.07;2.83;;;9.10;67.30;;;;;;5061790;28;20039;-86
2022/12/19 07:47:16;;;;;;;5.85;3.70;;;9.10;66.70;;;;;;5056757;28;20057;-86
2022/12/19 07:49:42;;;;;;;4.72;3.03;;;9.10;66.50;;;;;;5073944;28;20491;-81
2022/12/19 07:52:08;;;;;;;4.28;2.55;;;9.10;66.50;;;;;;5078794;28;20159;-77
2022/12/19 07:54:34;;;;;;;4.85;3.15;;;9.10;66.70;;;;;;5074543;28;20053;-89
2022/12/19 07:57:01;;;;;;;5.10;2.85;;;9.10;66.90;;;;;;5040482;28;20089;-90
2022/12/19 07:59:27;;;;;;;4.63;2.75;;;9.10;67.10;;;;;;5064742;28;20060;-84
2022/12/19 08:01:53;;;;;;;4.82;2.53;;;9.10;67.20;;;;;;5063761;28;20063;-90
2022/12/19 08:04:19;;;;;;;5.13;2.90;;;9.10;67.30;;;;;;5063675;28;20048;-90
2022/12/19 08:06:45;;;;;;;5.00;3.08;;;9.10;67.30;;;;;;5044680;28;20047;-92
2022/12/19 08:09:12;;;;;;;6.63;3.47;;;9.10;67.40;;;;;;5050712;28;20062;-83
2022/12/19 08:11:38;;;;;;;4.00;2.88;;;9.10;67.30;;;;;;5065079;28;20529;-92
2022/12/19 08:14:04;;;;;;;5.07;2.90;;;9.10;67.30;;;;;;5064839;28;20029;-89
2022/12/19 08:16:31;;;;;;;4.93;2.88;;;9.10;67.30;;;;;;5045371;28;20086;-89
2022/12/19 08:18:56;;;;;;;7.85;3.53;;;9.10;67.30;;;;;;5045547;28;20132;-91
2022/12/19 08:21:23;;;;;;;4.47;3.15;;;9.10;67.40;;;;;;5061125;28;20744;-86
2022/12/19 08:23:50;;;;;;;7.05;3.15;;;9.10;67.50;;;;;;5045213;28;20388;-85
2022/12/19 08:26:23;;;;;;;7.78;2.80;;;9.10;67.50;;;;;;5064790;28;20041;-86
2022/12/19 08:28:54;;;;;;;5.70;3.28;;;9.10;67.50;;;;;;5061624;28;20040;-76
2022/12/19 08:31:23;;;;;;;5.30;3.00;;;9.10;67.60;;;;;;5047663;28;20119;-77
2022/12/19 08:33:50;;;;;;;5.72;3.05;;;9.10;67.60;;;;;;5060832;28;20400;-77
2022/12/19 08:36:19;;;;;;;4.80;3.35;;;9.10;68.30;;;;;;5060031;28;20032;-78
2022/12/19 08:38:47;;;;;;;3.72;2.67;;;9.10;67.80;;;;;;5043628;28;20025;-79
2022/12/19 08:41:15;;;;;;;4.50;2.50;;;9.10;67.90;;;;;;5061616;28;20392;-80
2022/12/19 08:43:42;;;;;;;5.53;2.78;;;9.10;67.90;;;;;;5062488;28;20041;-79
2022/12/19 08:46:08;;;;;;;5.45;3.20;;;9.10;68.10;;;;;;5063538;28;20036;-78
2022/12/19 08:48:35;;;;;;;4.65;2.92;;;9.10;68.10;;;;;;5044250;28;20052;-78
2022/12/19 08:51:04;;;;;;;3.28;2.35;;;9.20;68.10;;;;;;5063049;28;20058;-80
2022/12/19 08:53:33;;;;;;;4.05;2.97;;;9.10;68.20;;;;;;5042930;28;20037;-78
2022/12/19 08:56:02;;;;;;;5.75;2.67;;;9.20;68.20;;;;;;5042515;28;20132;-78
2022/12/19 08:58:29;;;;;;;5.18;3.17;;;9.20;68.20;;;;;;5060413;28;20079;-77
2022/12/19 09:01:04;;;;;;;4.97;3.10;;;9.20;68.20;;;;;;5059985;28;20036;-76
2022/12/19 09:03:31;;;;;;;5.88;3.13;;;9.20;68.30;;;;;;5057916;28;20025;-78
2022/12/19 09:05:59;;;;;;;4.82;2.65;;;9.20;68.30;;;;;;5042723;28;20033;-77
2022/12/19 09:08:27;;;;;;;6.20;3.10;;;9.20;68.10;;;;;;5042805;28;20040;-78
2022/12/19 09:11:18;;;;;;;4.18;2.72;;;9.20;68.10;;;;;;5042579;28;20040;-78
2022/12/19 09:13:45;;;;;;;4.72;2.92;;;9.20;67.90;;;;;;5055044;28;20119;-77
2022/12/19 09:16:20;;;;;;;6.70;2.97;;;9.20;67.70;;;;;;5046535;28;20057;-77
2022/12/19 09:18:48;;;;;;;5.17;3.27;;;9.20;67.60;;;;;;5060427;28;20036;-79
2022/12/19 09:21:16;;;;;;;4.97;2.97;;;9.20;67.50;;;;;;5060982;28;20032;-77
2022/12/19 09:23:47;;;;;;;5.45;3.20;;;9.20;67.30;;;;;;5061771;28;20067;-76
2022/12/19 09:26:13;;;;;;;7.78;3.33;;;9.20;67.20;;;;;;5058660;28;20533;-78
2022/12/19 09:28:40;;;;;;;4.90;2.92;;;9.20;67.10;;;;;;5059269;28;20137;-78
2022/12/19 09:31:13;;;;;;;7.55;3.28;;;9.20;67.10;;;;;;5060137;28;20048;-77
2022/12/19 09:33:39;;;;;;;4.93;3.28;;;9.20;67.10;;;;;;5060906;28;20525;-78
2022/12/19 09:36:07;;;;;;;6.35;3.17;;;9.20;66.90;;;;;;5059691;28;20127;-77
2022/12/19 09:38:33;;;;;;;5.15;3.25;;;9.20;66.80;;;;;;5041190;28;20139;-77
2022/12/19 09:41:28;;;;;;;5.90;3.33;;;9.20;66.70;;;;;;5042078;28;20041;-79
2022/12/19 09:44:06;;;;;;;4.72;3.28;;;9.20;66.60;;;;;;5057403;28;20033;-76
2022/12/19 09:46:46;;;;;;;4.97;3.08;;;9.20;66.40;;;;;;5060124;28;20041;-77
2022/12/19 09:49:16;;;;;;;5.30;3.20;;;9.20;66.20;;;;;;5059866;28;20040;-76
2022/12/19 09:51:53;;;;;;;4.85;3.33;;;9.20;66.20;;;;;;5062347;28;20033;-77
2022/12/19 09:54:31;;;;;;;4.00;2.92;;;9.20;66.10;;;;;;5059208;28;20053;-76
2022/12/19 09:57:01;;;;;;;3.63;2.92;;;9.20;66.00;;;;;;5060419;28;20119;-77
2022/12/19 09:59:38;;;;;;;5.28;2.83;;;9.30;66.00;;;;;;5057542;28;20071;-76
2022/12/19 10:02:24;;;;;;;4.53;2.78;;;9.30;65.90;;;;;;5060478;28;20459;-78
2022/12/19 10:04:58;;;;;;;4.63;2.85;;;9.20;65.90;;;;;;5040829;28;20515;-76
2022/12/19 10:07:24;;;;;;;5.47;3.35;;;9.30;66.00;;;;;;5059758;28;20114;-77
2022/12/19 10:09:50;;;;;;;3.17;2.50;;;9.30;66.00;;;;;;5061782;28;20506;-76
2022/12/19 10:12:18;;;;;;;5.82;3.53;;;9.30;66.00;;;;;;5060376;28;20651;-77
2022/12/19 10:15:19;;;;;;;6.32;3.42;;;9.30;65.90;;;;;;5059496;28;20556;-78
2022/12/19 10:17:57;;;;;;;4.32;3.15;;;9.30;66.00;;;;;;5042826;28;20052;-78
2022/12/19 10:20:32;;;;;;;6.03;4.15;;;9.30;65.90;;;;;;5058251;28;20152;-77
2022/12/19 10:22:58;;;;;;;7.32;4.10;;;9.30;65.90;;;;;;5030327;28;20040;-77
2022/12/19 10:25:33;;;;;;;6.25;3.83;;;9.30;65.70;;;;;;5044378;28;20043;-76
2022/12/19 10:28:10;;;;;;;7.00;3.92;;;9.30;65.60;;;;;;5059984;28;20549;-78
2022/12/19 10:30:43;;;;;;;6.22;4.03;;;9.30;65.50;;;;;;5025517;28;20431;-76
2022/12/19 10:33:21;;;;;;;6.75;3.70;;;9.30;65.40;;;;;;5059738;28;20162;-76
2022/12/19 10:35:53;;;;;;;5.45;3.83;;;9.30;65.40;;;;;;5064091;28;20471;-76
2022/12/19 10:38:46;;;;;;;6.82;3.55;;;9.30;65.20;;;;;;5065372;28;20043;-77
2022/12/19 10:41:23;;;;;;;5.45;3.85;;;9.30;65.20;;;;;;5039033;28;20036;-77
2022/12/19 10:44:09;;;;;;;4.60;3.38;;;9.30;65.10;;;;;;5057613;28;20032;-78
2022/12/19 10:46:46;;;;;;;5.97;3.70;;;9.30;65.10;;;;;;5060935;28;20398;-80
2022/12/19 10:49:16;;;;;;;7.03;3.65;;;9.30;65.00;;;;;;5045906;28;20068;-77
2022/12/19 10:51:54;;;;;;;6.10;3.50;;;9.30;64.90;;;;;;5058764;28;20035;-78
2022/12/19 10:54:22;;;;;;;4.90;3.40;;;9.30;64.70;;;;;;5058466;28;20148;-78
2022/12/19 10:56:48;;;;;;;6.47;3.85;;;9.30;64.70;;;;;;5042011;28;20064;-77
2022/12/19 10:59:16;;;;;;;5.13;3.55;;;9.30;65.00;;;;;;5045735;28;20068;-78
2022/12/19 11:01:43;;;;;;;5.90;3.20;;;9.30;64.60;;;;;;5059008;28;20051;-77
2022/12/19 11:04:21;;;;;;;7.13;3.75;;;9.30;64.50;;;;;;5042405;28;20040;-78
2022/12/19 11:07:07;;;;;;;6.28;3.22;;;9.30;64.50;;;;;;5057713;28;20040;-78
2022/12/19 11:09:37;;;;;;;;;;;9.30;64.30;;;;;;5059836;28;20142;-78
2022/12/19 11:12:06;;;;;;;5.05;3.60;;;9.30;64.30;;;;;;5042641;28;19999;-78
2022/12/19 11:14:35;;;;;;;5.38;3.50;;;9.30;64.20;;;;;;5057364;28;20419;-78
2022/12/19 11:17:01;;;;;;;5.35;3.50;;;9.30;64.20;;;;;;5058128;28;20041;-78
2022/12/19 11:19:32;;;;;;;5.65;3.55;;;9.30;64.10;;;;;;5060339;28;20426;-82
2022/12/19 11:22:03;;;;;;;5.78;3.53;;;9.30;64.20;;;;;;5059090;28;20304;-80
2022/12/19 11:24:35;;;;;;;6.45;3.55;;;9.30;64.00;;;;;;5041841;28;20151;-78
2022/12/19 11:27:01;;;;;;;5.65;3.50;;;9.30;64.00;;;;;;5041774;28;20419;-79
2022/12/19 11:29:44;;;;;;;6.25;3.75;;;9.30;63.90;;;;;;5041992;28;20418;-78
2022/12/19 11:32:32;;;;;;;6.35;3.58;;;9.30;64.00;;;;;;5056536;28;20056;-78
2022/12/19 11:35:13;;;;;;;4.97;3.47;;;9.30;64.10;;;;;;5043030;28;20458;-77
2022/12/19 11:37:53;;;;;;;5.90;3.83;;;9.30;64.10;;;;;;5058483;28;20031;-78
2022/12/19 11:40:19;;;;;;;8.20;4.07;;;9.30;64.30;;;;;;5048311;28;20063;-77
2022/12/19 11:42:50;;;;;;;5.57;3.60;;;9.30;64.30;;;;;;5046526;28;20052;-77
2022/12/19 11:45:35;;;;;;;7.55;3.75;;;9.30;64.30;;;;;;5064519;28;20025;-77
2022/12/19 11:48:16;;;;;;;6.47;3.95;;;9.30;64.30;;;;;;5064527;28;20502;-79
2022/12/19 11:51:22;;;;;;;7.22;3.33;;;9.30;64.40;;;;;;5028609;28;20044;-77
2022/12/19 11:53:57;;;;;;;6.00;3.50;;;9.30;64.40;;;;;;5061479;28;20429;-80
2022/12/19 11:56:26;;;;;;;5.07;3.67;;;9.30;64.20;;;;;;5059981;28;20051;-77
2022/12/19 11:58:57;;;;;;;6.63;3.63;;;9.30;64.20;;;;;;5062193;28;20067;-76
2022/12/19 12:01:41;;;;;;;5.65;3.95;;;9.30;64.10;;;;;;5061109;28;20037;-78
2022/12/19 12:04:33;;;;;;;7.55;4.07;;;9.30;64.10;;;;;;5061005;28;20793;-78
2022/12/19 12:06:59;;;;;;;6.65;4.25;;;9.30;64.00;;;;;;5044104;28;20087;-77
2022/12/19 12:09:51;;;;;;;7.35;4.07;;;9.40;64.10;;;;;;5062102;28;20036;-79
2022/12/19 12:12:32;;;;;;;5.50;3.97;;;9.30;64.00;;;;;;5061499;28;20025;-79
2022/12/19 12:15:22;;;;;;;7.80;4.35;;;9.40;63.90;;;;;;5064730;28;20075;-77
2022/12/19 12:17:54;;;;;;;8.88;4.53;;;9.30;63.80;;;;;;5061768;28;20623;-75
2022/12/19 12:20:34;;;;;;;6.40;4.35;;;9.40;63.70;;;;;;5064498;28;20418;-79
2022/12/19 12:23:29;;;;;;;5.97;4.30;;;9.30;63.70;;;;;;5063124;28;20041;-78
2022/12/19 12:26:07;;;;;;;10.27;4.38;;;9.40;63.70;;;;;;5053200;28;20546;-78
2022/12/19 12:29:00;;;;;;;8.30;4.45;;;9.40;63.80;;;;;;5065604;28;20422;-81
2022/12/19 12:31:49;;;;;;;8.23;4.60;;;9.30;63.80;;;;;;5065573;28;20067;-76
2022/12/19 12:34:25;;;;;;;11.25;5.10;;;9.40;63.90;;;;;;5048251;28;20056;-77
2022/12/19 12:37:06;;;;;;;;;;;9.40;63.90;;;;;;5070605;28;20036;-75
2022/12/19 12:39:46;;;;;;;7.68;4.70;;;9.30;63.90;;;;;;5067644;28;20390;-76
2022/12/19 12:42:37;;;;;;;7.72;4.90;;;9.30;63.70;;;;;;5045126;28;20040;-77
2022/12/19 12:45:22;;;;;;;6.82;4.43;;;9.30;63.80;;;;;;5065511;28;20044;-78
2022/12/19 12:47:51;;;;;;;7.57;4.75;;;9.40;64.00;;;;;;5033091;28;20045;-76
2022/12/19 12:50:21;;;;;;;11.30;4.85;;;9.40;64.10;;;;;;5063951;28;20418;-77
2022/12/19 12:53:01;;;;;;;7.32;4.20;;;9.40;64.10;;;;;;5053724;28;20032;-77
2022/12/19 12:55:42;;;;;;;9.05;5.18;;;9.40;64.20;;;;;;5052728;28;20037;-76
2022/12/19 12:59:03;;;;;;;8.70;4.60;;;9.40;64.30;;;;;;5068931;28;20496;-76
2022/12/19 13:01:32;;;;;;;8.60;4.40;;;9.40;64.30;;;;;;4993786;28;20419;-84
2022/12/19 13:04:06;;;;;;;7.35;4.68;;;9.40;64.50;;;;;;5012230;28;20068;-84
2022/12/19 13:06:38;;;;;;;8.30;4.20;;;9.40;64.50;;;;;;5002613;28;20585;-84
2022/12/19 13:09:23;;;;;;;7.53;5.00;;;9.40;64.70;;;;;;5009096;28;20474;-83
2022/12/19 13:15:21;;;;;;;6.65;4.35;;;9.40;65.20;;;;;;5012907;28;20506;-83
2022/12/19 13:17:47;;;;;;;9.95;4.25;;;9.40;65.40;;;;;;5006935;28;20443;-84
2022/12/19 13:20:13;;;;;;;8.90;4.68;;;9.40;65.60;;;;;;5028818;28;20038;-83
2022/12/19 13:23:18;;;;;;;11.15;5.57;;;9.40;65.60;;;;;;5032741;28;20053;-82
2022/12/19 13:25:44;;;;;;;7.65;4.40;;;9.40;65.70;;;;;;5011000;28;20451;-81
2022/12/19 13:28:22;;;;;;;6.88;4.60;;;9.40;65.80;;;;;;5002461;28;20038;-83
2022/12/19 13:31:10;;;;;;;6.80;4.50;;;9.50;66.00;;;;;;5017179;28;20107;-82